Time;durP1;ratioP1;P1;durP2;ratioP2;P2;SDS_P1;SDS_P2;PMS_P1;PMS_P2;Temp;Humidity;BMP_temperature;BMP_pressure;BME280_temperature;BME280_humidity;BME280_pressure;Samples;Min_cycle;Max_cycle;Signal;HPM_P1;HPM_P2
2023/06/23 00:01:52;;;;;;;13.48;10.85;;;17.60;99.90;;;;;;6272273;22;20003;-72
2023/06/23 00:04:19;;;;;;;12.38;11.02;;;17.50;99.90;;;;;;6271602;22;20008;-73
2023/06/23 00:06:45;;;;;;;10.73;9.73;;;17.60;99.90;;;;;;6244907;22;20038;-73
2023/06/23 00:09:13;;;;;;;10.82;9.80;;;17.50;99.90;;;;;;6271885;22;19996;-72
2023/06/23 00:11:42;;;;;;;12.60;10.90;;;17.50;99.90;;;;;;6245085;22;20003;-72
2023/06/23 00:14:08;;;;;;;14.50;10.13;;;17.50;99.90;;;;;;6244652;22;20003;-72
2023/06/23 00:16:36;;;;;;;11.30;10.20;;;17.50;99.90;;;;;;6245032;22;20008;-73
2023/06/23 00:19:02;;;;;;;10.65;9.55;;;17.40;99.90;;;;;;6244144;22;20378;-73
2023/06/23 00:21:28;;;;;;;11.32;9.98;;;17.40;99.90;;;;;;6272168;22;20326;-73
2023/06/23 00:23:54;;;;;;;13.05;10.38;;;17.40;99.90;;;;;;6271297;22;19999;-72
2023/06/23 00:26:21;;;;;;;14.38;11.02;;;17.40;99.90;;;;;;6271464;22;20023;-73
2023/06/23 00:28:46;;;;;;;14.32;12.80;;;17.40;99.90;;;;;;6271582;22;20055;-72
2023/06/23 00:31:12;;;;;;;14.55;11.45;;;17.30;99.90;;;;;;6270804;22;20023;-73
2023/06/23 00:33:37;;;;;;;13.32;12.02;;;17.30;99.90;;;;;;6244036;22;20003;-73
2023/06/23 00:36:04;;;;;;;12.93;10.63;;;17.20;99.90;;;;;;6244343;22;20107;-73
2023/06/23 00:38:29;;;;;;;11.77;10.57;;;17.20;99.90;;;;;;6271929;22;20092;-73
2023/06/23 00:40:55;;;;;;;14.23;12.73;;;17.20;99.90;;;;;;6271571;22;20318;-72
2023/06/23 00:43:21;;;;;;;16.70;13.93;;;17.20;99.90;;;;;;6271951;22;20487;-72
2023/06/23 00:45:47;;;;;;;13.98;12.27;;;17.20;99.90;;;;;;6271953;22;20321;-72
2023/06/23 00:48:14;;;;;;;13.63;12.23;;;17.10;99.90;;;;;;6271078;22;20014;-73
2023/06/23 00:50:41;;;;;;;14.13;12.70;;;17.10;99.90;;;;;;6272065;22;20031;-72
2023/06/23 00:53:08;;;;;;;14.98;13.23;;;17.10;99.90;;;;;;6271662;22;20000;-73
2023/06/23 00:55:37;;;;;;;14.65;13.23;;;17.10;99.90;;;;;;6272118;22;20414;-72
2023/06/23 00:58:03;;;;;;;14.95;13.45;;;17.00;99.90;;;;;;6269416;22;20180;-73
2023/06/23 01:00:29;;;;;;;17.48;14.38;;;17.00;99.90;;;;;;6271334;22;20386;-72
2023/06/23 01:03:00;;;;;;;16.85;13.45;;;17.00;99.90;;;;;;6270332;22;20422;-72
2023/06/23 01:05:37;;;;;;;15.48;13.95;;;17.00;99.90;;;;;;6244192;22;20015;-73
2023/06/23 01:08:25;;;;;;;16.13;13.48;;;17.00;99.90;;;;;;6271266;22;20000;-73
2023/06/23 01:11:21;;;;;;;17.20;14.57;;;17.00;99.90;;;;;;6271331;22;20003;-73
2023/06/23 01:14:15;;;;;;;15.02;13.35;;;16.90;99.90;;;;;;6244312;22;20003;-73
2023/06/23 01:17:05;;;;;;;14.75;13.35;;;16.90;99.90;;;;;;6244134;22;20035;-73
2023/06/23 01:20:11;;;;;;;17.48;13.05;;;16.90;99.90;;;;;;6244865;22;20003;-72
2023/06/23 01:22:46;;;;;;;14.63;12.80;;;16.80;99.90;;;;;;6271645;22;20003;-73
2023/06/23 01:25:35;;;;;;;17.13;14.00;;;16.80;99.90;;;;;;6270929;22;20027;-72
2023/06/23 01:28:16;;;;;;;15.45;13.77;;;16.80;99.90;;;;;;6244062;22;20370;-73
2023/06/23 01:30:46;;;;;;;15.75;12.25;;;16.80;99.90;;;;;;6271348;22;20010;-72
2023/06/23 01:33:17;;;;;;;16.13;14.40;;;16.80;99.90;;;;;;6270779;22;20331;-72
2023/06/23 01:35:49;;;;;;;14.60;13.10;;;16.70;99.90;;;;;;6244422;22;20004;-73
2023/06/23 01:38:22;;;;;;;16.95;13.95;;;16.70;99.90;;;;;;6271075;22;20004;-73
2023/06/23 01:40:54;;;;;;;17.70;15.73;;;16.70;99.90;;;;;;6271722;22;20006;-73
2023/06/23 01:43:29;;;;;;;16.98;15.10;;;16.70;99.90;;;;;;6271477;22;20004;-73
2023/06/23 01:45:59;;;;;;;15.98;14.32;;;16.70;99.90;;;;;;6270691;22;20185;-73
2023/06/23 01:48:26;;;;;;;18.65;14.80;;;16.70;99.90;;;;;;6271466;22;20000;-73
2023/06/23 01:50:53;;;;;;;17.45;15.75;;;16.60;99.90;;;;;;6273441;22;20003;-73
2023/06/23 01:53:20;;;;;;;15.65;14.07;;;16.60;99.90;;;;;;6246254;22;20014;-73
2023/06/23 01:55:46;;;;;;;16.20;14.48;;;16.60;99.90;;;;;;6246376;22;20401;-73
2023/06/23 01:58:13;;;;;;;16.58;14.90;;;16.60;99.90;;;;;;6245693;22;20014;-73
2023/06/23 02:00:39;;;;;;;16.35;14.70;;;16.60;99.90;;;;;;6245568;22;20073;-73
2023/06/23 02:03:06;;;;;;;18.60;16.67;;;16.60;99.90;;;;;;6272290;22;20009;-72
2023/06/23 02:05:35;;;;;;;18.77;16.88;;;16.60;99.90;;;;;;6273661;22;20000;-72
2023/06/23 02:08:01;;;;;;;17.00;15.45;;;16.60;99.90;;;;;;6272916;22;20003;-73
2023/06/23 02:10:28;;;;;;;17.23;15.65;;;16.60;99.90;;;;;;6273561;22;19995;-73
2023/06/23 02:12:54;;;;;;;18.75;15.40;;;16.50;99.90;;;;;;6273057;22;19996;-73
2023/06/23 02:15:22;;;;;;;16.02;14.52;;;16.50;99.90;;;;;;6245991;22;20376;-73
2023/06/23 02:17:49;;;;;;;18.17;16.35;;;16.50;99.90;;;;;;6273053;22;20007;-73
2023/06/23 02:20:16;;;;;;;19.60;17.55;;;16.50;99.90;;;;;;6273067;22;20000;-73
2023/06/23 02:22:50;;;;;;;20.58;18.05;;;16.50;99.90;;;;;;6246258;22;20015;-73
2023/06/23 02:25:17;;;;;;;19.30;17.40;;;16.50;99.90;;;;;;6245427;22;20509;-72
2023/06/23 02:27:43;;;;;;;20.95;18.75;;;16.50;99.90;;;;;;6246187;22;20000;-73
2023/06/23 02:30:10;;;;;;;21.80;19.50;;;16.50;99.90;;;;;;6244782;22;20084;-73
2023/06/23 02:32:36;;;;;;;21.95;18.67;;;16.50;99.90;;;;;;6273399;22;19995;-73
2023/06/23 02:35:03;;;;;;;22.02;19.67;;;16.50;99.90;;;;;;6245464;22;20014;-73
2023/06/23 02:37:31;;;;;;;23.60;21.10;;;16.50;99.90;;;;;;6246387;22;20413;-73
2023/06/23 02:40:10;;;;;;;23.85;21.15;;;16.40;99.90;;;;;;6272464;22;20010;-73
2023/06/23 02:42:41;;;;;;;25.08;22.30;;;16.40;99.90;;;;;;6273141;22;20053;-72
2023/06/23 02:45:15;;;;;;;24.85;22.25;;;16.50;99.90;;;;;;6271797;22;20330;-73
2023/06/23 02:47:44;;;;;;;25.90;23.13;;;16.40;99.90;;;;;;6273214;22;19996;-73
2023/06/23 02:50:13;;;;;;;27.13;24.38;;;16.40;99.90;;;;;;6272531;22;20003;-72
2023/06/23 02:52:44;;;;;;;27.48;24.48;;;16.40;99.90;;;;;;6246131;22;20011;-73
2023/06/23 02:55:12;;;;;;;30.20;26.98;;;16.40;99.90;;;;;;6272448;22;20012;-73
2023/06/23 02:57:39;;;;;;;31.17;27.98;;;16.40;99.90;;;;;;6273137;22;20378;-73
2023/06/23 03:00:12;;;;;;;33.40;29.15;;;16.40;99.90;;;;;;6271453;22;20019;-73
2023/06/23 03:02:42;;;;;;;30.63;27.38;;;16.40;99.90;;;;;;6273096;22;20030;-73
2023/06/23 03:05:08;;;;;;;40.72;32.47;;;16.40;99.90;;;;;;6272101;22;19999;-72
2023/06/23 03:07:38;;;;;;;36.35;30.85;;;16.40;99.90;;;;;;6245694;22;20004;-73
2023/06/23 03:10:07;;;;;;;50.80;35.85;;;16.40;99.90;;;;;;6272500;22;19996;-73
2023/06/23 03:12:33;;;;;;;47.55;37.20;;;16.40;99.90;;;;;;6272884;22;20389;-72
2023/06/23 03:15:00;;;;;;;48.70;42.08;;;16.40;99.90;;;;;;6244708;22;20000;-72
2023/06/23 03:17:30;;;;;;;47.45;40.30;;;16.40;99.90;;;;;;6245710;22;20383;-72
2023/06/23 03:20:14;;;;;;;52.63;42.75;;;16.40;99.90;;;;;;6272564;22;20079;-72
2023/06/23 03:22:45;;;;;;;;;;;16.40;99.90;;;;;;6273427;22;20000;-72
2023/06/23 03:25:19;;;;;;;52.80;41.67;;;16.40;99.90;;;;;;6272157;22;19915;-73
2023/06/23 03:27:46;;;;;;;53.08;41.53;;;16.40;99.90;;;;;;6244545;22;20378;-72
2023/06/23 03:30:28;;;;;;;62.22;47.60;;;16.30;99.90;;;;;;6244862;22;20004;-72
2023/06/23 03:33:00;;;;;;;57.65;43.75;;;16.40;99.90;;;;;;6272194;22;19992;-74
2023/06/23 03:35:31;;;;;;;62.92;46.65;;;16.40;99.90;;;;;;6272840;22;20031;-72
2023/06/23 03:38:02;;;;;;;65.78;48.03;;;16.30;99.90;;;;;;6244945;22;19999;-72
2023/06/23 03:40:33;;;;;;;62.90;47.03;;;16.40;99.90;;;;;;6245232;22;20008;-73
2023/06/23 03:43:08;;;;;;;65.97;48.42;;;16.40;99.90;;;;;;6271628;22;19996;-72
2023/06/23 03:45:37;;;;;;;60.78;47.08;;;16.30;99.90;;;;;;6272432;22;20149;-72
2023/06/23 03:48:06;;;;;;;56.00;44.15;;;16.40;99.90;;;;;;6272130;22;20366;-72
2023/06/23 03:50:35;;;;;;;60.38;47.85;;;16.40;99.90;;;;;;6245423;22;20337;-72
2023/06/23 03:53:03;;;;;;;64.55;48.40;;;16.40;99.90;;;;;;6272156;22;20322;-72
2023/06/23 03:55:32;;;;;;;63.88;49.40;;;16.40;99.90;;;;;;6272270;22;20361;-74
2023/06/23 03:58:02;;;;;;;67.68;50.42;;;16.40;99.90;;;;;;6244330;22;20019;-73
2023/06/23 04:00:31;;;;;;;63.35;49.28;;;16.40;99.90;;;;;;6244904;22;20016;-73
2023/06/23 04:02:59;;;;;;;72.55;51.47;;;16.40;99.90;;;;;;6244797;22;20034;-73
2023/06/23 04:05:29;;;;;;;64.05;49.83;;;16.40;99.90;;;;;;6272297;22;20003;-73
2023/06/23 04:07:56;;;;;;;67.07;49.15;;;16.40;99.90;;;;;;6271469;22;19999;-74
2023/06/23 04:10:22;;;;;;;74.20;50.78;;;16.40;99.90;;;;;;6272410;22;20004;-73
2023/06/23 04:12:49;;;;;;;67.43;48.70;;;16.40;99.90;;;;;;6271224;22;20362;-73
2023/06/23 04:15:18;;;;;;;66.70;48.35;;;16.40;99.90;;;;;;6244827;22;20008;-73
2023/06/23 04:17:44;;;;;;;65.22;50.08;;;16.40;99.90;;;;;;6244609;22;20014;-73
2023/06/23 04:20:13;;;;;;;66.05;47.85;;;16.40;99.90;;;;;;6271804;22;20010;-73
2023/06/23 04:22:40;;;;;;;64.35;52.30;;;16.50;99.90;;;;;;6271349;22;20011;-72
2023/06/23 04:25:08;;;;;;;68.07;52.25;;;16.40;99.90;;;;;;6271192;22;20004;-72
2023/06/23 04:27:36;;;;;;;66.70;49.88;;;16.50;99.90;;;;;;6271946;22;20395;-73
2023/06/23 04:30:03;;;;;;;64.72;49.42;;;16.50;99.90;;;;;;6244369;22;20006;-72
2023/06/23 04:32:29;;;;;;;67.88;49.95;;;16.50;99.90;;;;;;6272046;22;20363;-72
2023/06/23 04:34:55;;;;;;;64.30;50.10;;;16.50;99.90;;;;;;6271804;22;20007;-73
2023/06/23 04:37:28;;;;;;;70.85;50.72;;;16.50;99.90;;;;;;6272204;22;20056;-73
2023/06/23 04:40:20;;;;;;;64.55;49.22;;;16.60;99.90;;;;;;6271060;22;20082;-73
2023/06/23 04:42:51;;;;;;;62.15;48.72;;;16.60;99.90;;;;;;6224672;22;20091;-73
2023/06/23 04:45:21;;;;;;;63.65;48.17;;;16.60;99.90;;;;;;6271772;22;20000;-73
2023/06/23 04:47:54;;;;;;;62.60;48.97;;;16.60;99.90;;;;;;6244824;22;20003;-72
2023/06/23 04:50:21;;;;;;;67.00;51.20;;;16.70;99.90;;;;;;6272069;22;20003;-73
2023/06/23 04:52:50;;;;;;;64.30;49.38;;;16.70;99.90;;;;;;6271972;22;20126;-73
2023/06/23 04:55:19;;;;;;;64.00;49.55;;;16.80;99.90;;;;;;6243933;22;20395;-73
2023/06/23 04:57:47;;;;;;;68.72;51.10;;;16.90;99.90;;;;;;6271730;22;20324;-73
2023/06/23 05:00:18;;;;;;;72.53;52.30;;;17.00;99.90;;;;;;6243940;22;20019;-73
2023/06/23 05:02:48;;;;;;;69.55;51.47;;;17.10;99.90;;;;;;6244300;22;20386;-73
2023/06/23 05:05:18;;;;;;;68.18;50.90;;;17.20;99.90;;;;;;6271353;22;20015;-73
2023/06/23 05:07:45;;;;;;;69.25;50.13;;;17.20;99.90;;;;;;6271769;22;19992;-73
2023/06/23 05:10:13;;;;;;;76.95;53.85;;;17.30;99.90;;;;;;6270906;22;20385;-73
2023/06/23 05:12:41;;;;;;;79.75;54.00;;;17.40;99.90;;;;;;6244452;22;20465;-73
2023/06/23 05:15:07;;;;;;;82.35;56.40;;;17.50;99.90;;;;;;6271557;22;20006;-73
2023/06/23 05:17:37;;;;;;;82.80;53.70;;;17.50;99.90;;;;;;6271792;22;20011;-72
2023/06/23 05:20:04;;;;;;;75.25;55.13;;;17.60;99.90;;;;;;6244195;22;20000;-73
2023/06/23 05:22:32;;;;;;;76.93;51.35;;;17.70;99.90;;;;;;6271712;22;20010;-73
2023/06/23 05:25:03;;;;;;;76.15;53.20;;;17.70;99.90;;;;;;6243364;22;20003;-73
2023/06/23 05:27:31;;;;;;;74.75;55.90;;;17.80;99.90;;;;;;6271805;22;19995;-73
2023/06/23 05:29:58;;;;;;;72.00;50.45;;;17.80;99.90;;;;;;6243892;22;20037;-73
2023/06/23 05:32:28;;;;;;;78.80;56.22;;;17.90;99.90;;;;;;6271789;22;19992;-73
2023/06/23 05:34:58;;;;;;;76.72;54.30;;;18.00;99.90;;;;;;6244007;22;20440;-73
2023/06/23 05:37:25;;;;;;;74.45;54.15;;;18.10;99.90;;;;;;6271846;22;20086;-73
2023/06/23 05:39:51;;;;;;;66.88;49.40;;;18.20;99.90;;;;;;6243755;22;20333;-73
2023/06/23 05:42:19;;;;;;;72.18;51.70;;;18.20;99.90;;;;;;6271483;22;20000;-73
2023/06/23 05:44:45;;;;;;;66.20;47.60;;;18.20;99.90;;;;;;6244294;22;20337;-73
2023/06/23 05:47:17;;;;;;;77.97;53.05;;;18.30;99.90;;;;;;6271366;22;19995;-73
2023/06/23 05:49:45;;;;;;;77.30;54.20;;;18.30;99.90;;;;;;6271783;22;20022;-73
2023/06/23 05:52:16;;;;;;;83.75;57.83;;;18.40;99.90;;;;;;6270815;22;19999;-73
2023/06/23 05:54:46;;;;;;;76.45;51.35;;;18.40;99.90;;;;;;6244547;22;20035;-73
2023/06/23 05:57:23;;;;;;;77.45;53.42;;;18.50;99.90;;;;;;6244100;22;20007;-73
2023/06/23 06:00:01;;;;;;;75.78;55.20;;;18.50;99.90;;;;;;6244441;22;20058;-73
2023/06/23 06:02:31;;;;;;;74.65;53.92;;;18.60;99.90;;;;;;6244558;22;20425;-73
2023/06/23 06:05:00;;;;;;;76.57;55.72;;;18.60;99.90;;;;;;6270809;22;20003;-72
2023/06/23 06:07:27;;;;;;;55.90;41.75;;;18.70;99.90;;;;;;6271070;22;19996;-73
2023/06/23 06:09:55;;;;;;;62.92;45.97;;;18.70;99.90;;;;;;6271155;22;20019;-72
2023/06/23 06:12:22;;;;;;;74.30;55.55;;;18.70;99.90;;;;;;6271578;22;20006;-73
2023/06/23 06:14:49;;;;;;;67.43;51.35;;;18.80;99.90;;;;;;6271700;22;20417;-73
2023/06/23 06:17:16;;;;;;;59.30;48.15;;;18.80;99.90;;;;;;6271031;22;20366;-72
2023/06/23 06:19:44;;;;;;;65.03;50.63;;;18.90;99.90;;;;;;6271861;22;20078;-73
2023/06/23 06:22:11;;;;;;;64.13;49.85;;;19.00;99.90;;;;;;6242918;22;20846;-73
2023/06/23 06:24:39;;;;;;;53.53;44.83;;;19.10;99.90;;;;;;6244396;22;20007;-73
2023/06/23 06:27:08;;;;;;;63.10;47.55;;;19.10;99.90;;;;;;6270848;22;20003;-73
2023/06/23 06:29:36;;;;;;;62.72;45.40;;;19.20;99.90;;;;;;6271587;22;20008;-72
2023/06/23 06:32:05;;;;;;;55.70;45.95;;;19.30;99.90;;;;;;6270081;22;19991;-73
2023/06/23 06:34:31;;;;;;;57.13;47.40;;;19.30;99.90;;;;;;6271881;22;20010;-73
2023/06/23 06:37:00;;;;;;;55.13;41.90;;;19.40;99.90;;;;;;6244826;22;20008;-73
2023/06/23 06:39:28;;;;;;;54.55;40.13;;;19.50;99.90;;;;;;6246274;22;20004;-73
2023/06/23 06:41:56;;;;;;;53.00;43.25;;;19.50;99.90;;;;;;6245484;22;20075;-73
2023/06/23 06:44:22;;;;;;;46.85;39.22;;;19.60;99.90;;;;;;6273029;22;20149;-73
2023/06/23 06:46:50;;;;;;;46.67;38.97;;;19.70;99.90;;;;;;6273182;22;20436;-73
2023/06/23 06:49:18;;;;;;;45.08;38.55;;;19.80;99.90;;;;;;6272886;22;20007;-73
2023/06/23 06:51:45;;;;;;;44.08;39.30;;;19.90;99.90;;;;;;6272844;22;20010;-73
2023/06/23 06:54:11;;;;;;;42.05;37.50;;;19.90;99.90;;;;;;6272142;22;20078;-73
2023/06/23 06:56:36;;;;;;;37.85;33.53;;;20.00;99.90;;;;;;6245546;22;20433;-73
2023/06/23 06:59:03;;;;;;;41.47;37.15;;;20.00;99.90;;;;;;6272131;22;20023;-74
2023/06/23 07:01:29;;;;;;;36.95;32.63;;;20.00;99.90;;;;;;6245997;22;20011;-72
2023/06/23 07:03:56;;;;;;;38.38;32.47;;;20.00;99.90;;;;;;6245088;22;20007;-73
2023/06/23 07:06:22;;;;;;;35.22;31.45;;;20.00;99.90;;;;;;6272664;22;20141;-73
2023/06/23 07:08:47;;;;;;;36.72;32.63;;;20.00;99.90;;;;;;6272988;22;20076;-73
2023/06/23 07:11:13;;;;;;;33.38;30.10;;;20.10;99.90;;;;;;6272390;22;20473;-73
2023/06/23 07:13:39;;;;;;;34.22;30.58;;;20.10;99.90;;;;;;6272789;22;20065;-73
2023/06/23 07:16:05;;;;;;;38.47;31.80;;;20.20;99.90;;;;;;6272293;22;20008;-75
2023/06/23 07:18:31;;;;;;;30.27;27.27;;;20.30;99.90;;;;;;6272993;22;20090;-72
2023/06/23 07:20:56;;;;;;;31.30;28.13;;;20.40;99.90;;;;;;6244390;22;20004;-73
2023/06/23 07:23:23;;;;;;;29.77;26.60;;;20.40;99.90;;;;;;6272940;22;20011;-80
2023/06/23 07:25:48;;;;;;;28.75;25.92;;;20.30;99.90;;;;;;6243868;22;20008;-77
2023/06/23 07:28:14;;;;;;;29.50;26.33;;;20.30;99.90;;;;;;6244174;22;20086;-78
2023/06/23 07:30:40;;;;;;;26.98;24.35;;;20.40;99.90;;;;;;6244688;22;20392;-78
2023/06/23 07:33:06;;;;;;;26.67;23.83;;;20.50;99.90;;;;;;6271373;22;20016;-80
2023/06/23 07:35:32;;;;;;;23.38;21.02;;;20.50;99.90;;;;;;6244328;22;20389;-80
2023/06/23 07:37:57;;;;;;;25.05;22.65;;;20.60;99.90;;;;;;6244445;22;20028;-79
2023/06/23 07:40:23;;;;;;;24.23;21.92;;;20.60;99.90;;;;;;6244759;22;20222;-77
2023/06/23 07:42:48;;;;;;;23.35;20.88;;;20.70;99.90;;;;;;6272015;22;20083;-75
2023/06/23 07:45:14;;;;;;;23.92;21.50;;;20.70;99.90;;;;;;6271186;22;20325;-73
2023/06/23 07:47:40;;;;;;;24.00;21.85;;;20.70;99.90;;;;;;6245300;22;20003;-76
2023/06/23 07:50:06;;;;;;;26.23;23.75;;;20.70;99.90;;;;;;6271391;22;20085;-82
2023/06/23 07:52:31;;;;;;;23.73;21.42;;;20.90;99.90;;;;;;6246099;22;20007;-82
2023/06/23 07:54:57;;;;;;;21.80;19.70;;;21.00;99.90;;;;;;6273820;22;20003;-82
2023/06/23 07:57:23;;;;;;;24.70;22.35;;;21.00;99.90;;;;;;6245436;22;20011;-76
2023/06/23 07:59:48;;;;;;;26.38;23.30;;;21.00;99.90;;;;;;6244993;22;20039;-76
2023/06/23 08:02:15;;;;;;;21.92;19.83;;;21.00;99.90;;;;;;6272628;22;20022;-76
2023/06/23 08:04:41;;;;;;;19.92;17.98;;;21.10;99.90;;;;;;6272152;22;20008;-77
2023/06/23 08:07:06;;;;;;;20.13;17.95;;;21.10;99.90;;;;;;6273086;22;20003;-76
2023/06/23 08:09:32;;;;;;;18.73;16.83;;;21.20;99.90;;;;;;6273578;22;20326;-76
2023/06/23 08:11:57;;;;;;;20.27;18.08;;;21.20;99.90;;;;;;6246168;22;20011;-77
2023/06/23 08:14:23;;;;;;;23.08;20.85;;;21.20;99.90;;;;;;6273078;22;20030;-76
2023/06/23 08:16:48;;;;;;;21.98;19.77;;;21.10;99.90;;;;;;6272624;22;20007;-76
2023/06/23 08:19:14;;;;;;;21.35;19.13;;;21.20;99.90;;;;;;6271676;22;20368;-76
2023/06/23 08:21:42;;;;;;;19.63;17.55;;;21.30;99.90;;;;;;6245363;22;20086;-76
2023/06/23 08:24:08;;;;;;;19.23;17.48;;;21.30;99.90;;;;;;6271723;22;19999;-76
2023/06/23 08:26:33;;;;;;;16.25;14.68;;;21.40;99.90;;;;;;6245300;22;20430;-76
2023/06/23 08:28:59;;;;;;;16.23;14.55;;;21.40;99.90;;;;;;6271847;22;20003;-76
2023/06/23 08:31:24;;;;;;;15.57;14.02;;;21.50;99.90;;;;;;6245201;22;20003;-76
2023/06/23 08:33:50;;;;;;;17.58;15.77;;;21.60;99.90;;;;;;6244298;22;20325;-76
2023/06/23 08:36:15;;;;;;;15.00;13.50;;;21.60;99.90;;;;;;6244384;22;20016;-77
2023/06/23 08:38:41;;;;;;;17.35;15.60;;;21.70;99.90;;;;;;6272405;22;20500;-77
2023/06/23 08:41:09;;;;;;;16.45;14.68;;;21.70;99.90;;;;;;6271728;22;20007;-77
2023/06/23 08:43:35;;;;;;;17.55;15.75;;;21.70;99.90;;;;;;6245100;22;20000;-77
2023/06/23 08:46:04;;;;;;;15.40;13.63;;;21.80;99.90;;;;;;6244472;22;20008;-77
2023/06/23 08:48:30;;;;;;;11.98;10.75;;;21.80;99.90;;;;;;6272297;22;19999;-75
2023/06/23 08:51:00;;;;;;;11.45;10.10;;;21.90;99.90;;;;;;6271643;22;20021;-76
2023/06/23 08:53:27;;;;;;;9.88;8.75;;;21.90;99.90;;;;;;6272239;22;20065;-78
2023/06/23 08:55:53;;;;;;;11.50;9.77;;;21.90;99.90;;;;;;6271635;22;20475;-77
2023/06/23 08:58:23;;;;;;;12.57;8.45;;;22.00;99.90;;;;;;6272083;22;20066;-77
2023/06/23 09:00:51;;;;;;;10.73;9.60;;;22.00;99.90;;;;;;6243461;22;20035;-75
2023/06/23 09:03:17;;;;;;;12.68;11.30;;;22.00;99.90;;;;;;6270317;22;20000;-76
2023/06/23 09:05:43;;;;;;;14.57;11.73;;;22.10;99.90;;;;;;6243940;22;20073;-77
2023/06/23 09:08:09;;;;;;;12.50;11.35;;;22.20;99.90;;;;;;6271410;22;20430;-76
2023/06/23 09:10:35;;;;;;;14.82;13.38;;;22.20;99.90;;;;;;6244678;22;20006;-76
2023/06/23 09:13:06;;;;;;;12.98;11.68;;;22.30;99.90;;;;;;6271519;22;19999;-76
2023/06/23 09:15:33;;;;;;;12.68;10.98;;;22.40;99.90;;;;;;6271487;22;20000;-76
2023/06/23 09:18:01;;;;;;;13.10;11.73;;;22.40;99.90;;;;;;6244567;22;20000;-76
2023/06/23 09:20:29;;;;;;;11.23;10.13;;;22.50;99.90;;;;;;6244843;22;20008;-76
2023/06/23 09:22:55;;;;;;;10.82;9.73;;;22.60;99.90;;;;;;6244206;22;20008;-76
2023/06/23 09:25:42;;;;;;;13.23;11.88;;;22.60;99.90;;;;;;6244754;22;20016;-76
2023/06/23 09:28:19;;;;;;;12.32;10.98;;;22.60;99.90;;;;;;6271449;22;20000;-76
2023/06/23 09:30:45;;;;;;;10.93;9.82;;;22.70;99.90;;;;;;6244290;22;20007;-76
2023/06/23 09:33:10;;;;;;;11.57;10.38;;;22.70;99.90;;;;;;6271757;22;19999;-76
2023/06/23 09:35:36;;;;;;;10.63;9.52;;;22.80;99.90;;;;;;6244970;22;20280;-76
2023/06/23 09:38:02;;;;;;;9.68;8.68;;;23.00;99.90;;;;;;6271231;22;20015;-76
2023/06/23 09:40:28;;;;;;;10.68;7.82;;;23.00;99.90;;;;;;6272189;22;20079;-76
2023/06/23 09:42:57;;;;;;;10.07;8.40;;;23.00;99.90;;;;;;6271108;22;20088;-75
2023/06/23 09:45:23;;;;;;;12.48;9.25;;;23.00;99.90;;;;;;6271294;22;20015;-77
2023/06/23 09:47:49;;;;;;;8.77;7.97;;;23.00;99.90;;;;;;6271859;22;20015;-77
2023/06/23 09:50:16;;;;;;;7.57;6.50;;;23.00;99.90;;;;;;6271728;22;20010;-76
2023/06/23 09:52:42;;;;;;;7.07;6.38;;;23.10;99.50;;;;;;6271740;22;20000;-76
2023/06/23 09:55:08;;;;;;;7.90;6.45;;;23.10;99.10;;;;;;6271358;22;20018;-76
2023/06/23 09:57:33;;;;;;;6.03;5.40;;;23.10;99.10;;;;;;6272043;22;20019;-76
2023/06/23 10:00:00;;;;;;;5.88;5.22;;;23.20;99.00;;;;;;6243297;22;20650;-76
2023/06/23 10:02:27;;;;;;;8.50;7.25;;;23.30;98.80;;;;;;6244773;22;20011;-77
2023/06/23 10:05:01;;;;;;;8.32;6.40;;;23.40;98.20;;;;;;6271425;22;20076;-76
2023/06/23 10:07:28;;;;;;;7.60;5.70;;;23.40;97.60;;;;;;6244748;22;20295;-77
2023/06/23 10:10:04;;;;;;;6.05;5.40;;;23.40;96.80;;;;;;6271550;22;20000;-77
2023/06/23 10:12:30;;;;;;;6.07;5.15;;;23.40;97.00;;;;;;6246238;22;19995;-76
2023/06/23 10:14:57;;;;;;;5.53;4.75;;;23.50;96.90;;;;;;6245256;22;20003;-76
2023/06/23 10:17:23;;;;;;;6.05;5.28;;;23.50;97.20;;;;;;6273723;22;20484;-76
2023/06/23 10:19:50;;;;;;;5.15;4.75;;;23.60;96.10;;;;;;6246616;22;19999;-77
2023/06/23 10:22:21;;;;;;;5.30;4.72;;;23.60;96.20;;;;;;6246564;22;20000;-76
2023/06/23 10:24:52;;;;;;;4.82;4.38;;;23.60;95.70;;;;;;6246272;22;20089;-76
2023/06/23 10:27:24;;;;;;;4.97;4.55;;;23.60;95.40;;;;;;6245973;22;20000;-76
2023/06/23 10:29:52;;;;;;;5.23;4.73;;;23.60;95.20;;;;;;6245572;22;20000;-78
2023/06/23 10:32:23;;;;;;;6.00;3.75;;;23.70;95.10;;;;;;6273158;22;20436;-77
2023/06/23 10:34:51;;;;;;;5.15;3.50;;;23.70;95.00;;;;;;6246402;22;20006;-77
2023/06/23 10:37:22;;;;;;;5.30;4.38;;;23.70;95.00;;;;;;6246321;22;20311;-74
2023/06/23 10:39:56;;;;;;;6.93;4.43;;;23.80;94.60;;;;;;6246493;22;20019;-77
2023/06/23 10:42:23;;;;;;;4.20;3.67;;;23.80;94.10;;;;;;6246402;22;20027;-77
2023/06/23 10:44:49;;;;;;;5.65;4.20;;;23.80;93.90;;;;;;6273577;22;19996;-77
2023/06/23 10:47:16;;;;;;;5.90;4.40;;;23.80;92.70;;;;;;6246181;22;19999;-76
2023/06/23 10:49:43;;;;;;;4.88;4.07;;;23.80;92.50;;;;;;6273222;22;20000;-76
2023/06/23 10:52:10;;;;;;;4.18;3.78;;;23.80;92.60;;;;;;6245345;22;20490;-76
2023/06/23 10:54:35;;;;;;;6.80;4.65;;;23.90;92.70;;;;;;6246495;22;20448;-76
2023/06/23 10:57:12;;;;;;;4.93;3.58;;;23.90;92.20;;;;;;6244867;22;20007;-75
2023/06/23 10:59:42;;;;;;;4.70;3.60;;;23.90;91.10;;;;;;6245973;22;20027;-76
2023/06/23 11:02:09;;;;;;;5.07;3.95;;;24.00;90.70;;;;;;6272681;22;20320;-76
2023/06/23 11:04:38;;;;;;;4.82;3.13;;;24.00;90.90;;;;;;6273168;22;20003;-77
2023/06/23 11:07:08;;;;;;;5.68;3.55;;;24.00;90.60;;;;;;6244505;22;20015;-75
2023/06/23 11:09:54;;;;;;;3.13;2.80;;;24.00;90.20;;;;;;6273372;22;20008;-79
2023/06/23 11:12:45;;;;;;;3.67;3.00;;;24.10;89.40;;;;;;6272783;22;20349;-78
2023/06/23 11:15:16;;;;;;;4.43;3.30;;;24.10;88.20;;;;;;6245025;22;20011;-77
2023/06/23 11:17:47;;;;;;;3.63;2.97;;;24.00;86.00;;;;;;6246232;22;20030;-77
2023/06/23 11:20:25;;;;;;;2.72;2.25;;;24.10;86.80;;;;;;6272888;22;20085;-77
2023/06/23 11:22:54;;;;;;;3.80;3.50;;;24.10;86.90;;;;;;6245925;22;20076;-77
2023/06/23 11:25:28;;;;;;;8.10;3.00;;;24.20;87.20;;;;;;6273388;22;20038;-77
2023/06/23 11:28:24;;;;;;;7.15;3.35;;;24.20;87.10;;;;;;6244749;22;20075;-77
2023/06/23 11:31:11;;;;;;;4.18;3.75;;;24.20;84.50;;;;;;6272548;22;20015;-76
2023/06/23 11:33:42;;;;;;;4.57;2.95;;;24.20;85.60;;;;;;6272690;22;20046;-77
2023/06/23 11:36:17;;;;;;;4.13;2.53;;;24.20;82.90;;;;;;6244104;22;20305;-77
2023/06/23 11:38:44;;;;;;;5.40;3.47;;;24.20;81.70;;;;;;6246792;22;20078;-76
2023/06/23 11:41:12;;;;;;;4.15;2.65;;;24.30;82.50;;;;;;6276580;22;20031;-77
2023/06/23 11:43:45;;;;;;;3.53;2.97;;;24.20;82.80;;;;;;6273417;22;20079;-77
2023/06/23 11:46:15;;;;;;;3.50;2.38;;;24.30;83.70;;;;;;6245274;22;20008;-76
2023/06/23 11:48:42;;;;;;;3.33;2.45;;;24.30;82.90;;;;;;6246224;22;20003;-77
2023/06/23 11:51:11;;;;;;;2.50;2.10;;;24.40;82.20;;;;;;6246480;22;20063;-77
2023/06/23 11:53:40;;;;;;;3.20;2.20;;;24.40;81.70;;;;;;6274152;22;20504;-77
2023/06/23 11:56:06;;;;;;;4.03;2.03;;;24.40;78.90;;;;;;6245201;22;20049;-78
2023/06/23 11:58:33;;;;;;;3.85;2.42;;;24.40;77.30;;;;;;6245116;22;20081;-77
2023/06/23 12:00:59;;;;;;;3.60;2.55;;;24.50;77.90;;;;;;6271378;22;20487;-76
2023/06/23 12:03:25;;;;;;;3.30;2.45;;;24.50;78.30;;;;;;6245929;22;20031;-77
2023/06/23 12:05:51;;;;;;;3.45;2.30;;;24.50;78.50;;;;;;6272180;22;20004;-78
2023/06/23 12:08:17;;;;;;;3.72;2.22;;;24.60;79.10;;;;;;6272683;22;20452;-78
2023/06/23 12:10:43;;;;;;;3.67;2.45;;;24.60;77.40;;;;;;6244977;22;20110;-77
2023/06/23 12:13:13;;;;;;;2.70;2.40;;;24.60;75.30;;;;;;6271857;22;20003;-77
2023/06/23 12:15:39;;;;;;;3.38;2.15;;;24.60;75.50;;;;;;6272704;22;20010;-77
2023/06/23 12:18:06;;;;;;;3.97;2.78;;;24.70;76.70;;;;;;6271820;22;20010;-77
2023/06/23 12:20:44;;;;;;;2.55;2.22;;;24.70;75.90;;;;;;6245394;22;20014;-77
2023/06/23 12:23:11;;;;;;;3.63;2.72;;;24.80;75.50;;;;;;6245047;22;20318;-78
2023/06/23 12:25:45;;;;;;;2.80;2.30;;;24.80;74.30;;;;;;6245028;22;20003;-77
2023/06/23 12:28:15;;;;;;;3.42;2.17;;;24.90;75.50;;;;;;6271940;22;20043;-77
2023/06/23 12:30:48;;;;;;;3.38;2.67;;;24.90;73.70;;;;;;6245102;22;20414;-77
2023/06/23 12:33:19;;;;;;;4.93;2.60;;;24.90;74.20;;;;;;6244354;22;20012;-77
2023/06/23 12:36:03;;;;;;;3.22;2.42;;;25.00;74.80;;;;;;6245123;22;20086;-76
2023/06/23 12:38:33;;;;;;;3.05;2.47;;;25.00;74.80;;;;;;6271963;22;20007;-78
2023/06/23 12:41:23;;;;;;;8.15;3.35;;;25.10;75.70;;;;;;6244723;22;20086;-78
2023/06/23 12:43:50;;;;;;;3.15;2.50;;;25.20;76.50;;;;;;6271982;22;20003;-77